Time;durP1;ratioP1;P1;durP2;ratioP2;P2;SDS_P1;SDS_P2;PMS_P1;PMS_P2;Temp;Humidity;BMP_temperature;BMP_pressure;BME280_temperature;BME280_humidity;BME280_pressure;Samples;Min_cycle;Max_cycle;Signal;HPM_P1;HPM_P2
2024/01/20 00:00:45;;;;;;;32.92;16.75;;;;;;;4.09;59.68;102631.69;4965855;29;20121;-63
2024/01/20 00:03:13;;;;;;;35.00;15.35;;;;;;;4.08;59.63;102625.53;4967238;29;20079;-64
2024/01/20 00:05:41;;;;;;;31.92;15.75;;;;;;;4.08;59.83;102619.38;4965678;29;20115;-63
2024/01/20 00:08:09;;;;;;;33.83;16.63;;;;;;;4.06;59.56;102627.47;4966301;28;20071;-64
2024/01/20 00:10:38;;;;;;;34.50;16.52;;;;;;;4.09;59.52;102634.34;4965508;28;20043;-63
2024/01/20 00:13:06;;;;;;;30.83;15.40;;;;;;;4.07;59.54;102623.84;4966694;29;20067;-63
2024/01/20 00:15:36;;;;;;;34.10;15.35;;;;;;;4.06;59.85;102619.50;4966123;29;20058;-63
2024/01/20 00:18:04;;;;;;;30.75;15.68;;;;;;;4.08;60.40;102622.03;4965989;29;20051;-64
2024/01/20 00:20:32;;;;;;;31.52;15.85;;;;;;;4.08;59.69;102622.03;4965914;29;20114;-64
2024/01/20 00:23:00;;;;;;;29.40;14.82;;;;;;;4.07;60.06;102628.31;4966372;29;20045;-64
2024/01/20 00:25:28;;;;;;;31.23;15.75;;;;;;;4.09;59.49;102621.06;4964496;29;20051;-64
2024/01/20 00:27:56;;;;;;;30.88;15.23;;;;;;;4.09;60.03;102623.72;4959886;28;20050;-64
2024/01/20 00:30:24;;;;;;;28.58;14.55;;;;;;;4.08;59.69;102619.38;4974756;28;20047;-64
2024/01/20 00:32:53;;;;;;;31.73;14.60;;;;;;;4.07;59.84;102623.84;4964795;29;20094;-64
2024/01/20 00:35:21;;;;;;;32.75;15.75;;;;;;;4.06;59.33;102623.97;4968474;28;20080;-64
2024/01/20 00:37:49;;;;;;;26.00;13.65;;;;;;;4.03;60.13;102614.44;4965124;29;20074;-64
2024/01/20 00:40:18;;;;;;;32.63;15.65;;;;;;;4.09;59.58;102623.72;4966342;29;20090;-64
2024/01/20 00:42:46;;;;;;;27.63;14.75;;;;;;;4.07;59.90;102623.84;4965872;28;20040;-63
2024/01/20 00:45:14;;;;;;;32.47;14.20;;;;;;;4.06;59.37;102627.47;4964960;29;20438;-64
2024/01/20 00:47:42;;;;;;;30.17;13.85;;;;;;;4.08;60.11;102627.34;4959409;29;20571;-64
2024/01/20 00:50:11;;;;;;;30.25;14.73;;;;;;;4.06;60.20;102619.50;4958089;29;20511;-64
2024/01/20 00:52:39;;;;;;;31.77;14.85;;;;;;;4.06;60.04;102622.16;4966892;28;20048;-64
2024/01/20 00:55:08;;;;;;;33.38;14.40;;;;;;;4.06;59.83;102626.66;4964969;28;20123;-63
2024/01/20 00:57:35;;;;;;;33.78;15.45;;;;;;;4.07;60.16;102618.53;4962539;29;20051;-63
2024/01/20 01:00:08;;;;;;;31.45;14.00;;;;;;;4.06;59.84;102621.31;4947206;29;20051;-64
2024/01/20 01:02:36;;;;;;;28.02;14.65;;;;;;;4.08;60.42;102622.88;4960770;29;20047;-64
2024/01/20 01:05:05;;;;;;;26.52;11.90;;;;;;;4.07;60.30;102615.03;4965632;29;20051;-64
2024/01/20 01:07:35;;;;;;;29.25;14.82;;;;;;;4.05;60.28;102623.13;4960919;29;20053;-64
2024/01/20 01:10:04;;;;;;;28.42;13.07;;;;;;;4.05;60.09;102620.47;4965861;29;20059;-64
2024/01/20 01:12:31;;;;;;;27.15;13.40;;;;;;;4.04;60.32;102626.78;4966083;29;20047;-64
2024/01/20 01:14:59;;;;;;;27.48;12.73;;;;;;;4.03;60.40;102617.13;4952351;29;20047;-64
2024/01/20 01:17:27;;;;;;;24.75;13.13;;;;;;;4.06;59.76;102618.66;4952534;29;20058;-64
2024/01/20 01:19:55;;;;;;;29.02;13.57;;;;;;;4.05;60.17;102631.13;4961152;29;20057;-63
2024/01/20 01:22:23;;;;;;;26.23;13.68;;;;;;;4.03;60.19;102622.44;4964241;29;20117;-63
2024/01/20 01:24:53;;;;;;;25.20;11.85;;;;;;;4.05;59.99;102624.97;4983583;28;20061;-64
2024/01/20 01:27:21;;;;;;;26.75;13.20;;;;;;;4.04;60.41;102620.63;4966019;28;20059;-63
2024/01/20 01:29:49;;;;;;;26.95;12.05;;;;;;;4.03;60.09;102624.25;4962462;29;20101;-64
2024/01/20 01:32:17;;;;;;;24.92;12.18;;;;;;;4.02;59.89;102622.56;4965334;29;20051;-64
2024/01/20 01:34:45;;;;;;;29.60;13.85;;;;;;;4.01;60.39;102616.41;4966743;28;20054;-64
2024/01/20 01:37:13;;;;;;;25.85;12.85;;;;;;;4.00;60.41;102629.84;4979481;28;20059;-64
2024/01/20 01:39:42;;;;;;;24.73;13.27;;;;;;;4.00;60.03;102635.16;4964150;29;20063;-63
2024/01/20 01:42:11;;;;;;;26.40;13.07;;;;;;;3.99;60.45;102644.13;4965195;29;20122;-64
2024/01/20 01:44:39;;;;;;;25.33;13.52;;;;;;;4.00;60.56;102635.16;4962320;29;20075;-64
2024/01/20 01:47:07;;;;;;;26.02;13.65;;;;;;;3.96;60.36;102623.94;4964632;29;20051;-63
2024/01/20 01:49:35;;;;;;;28.40;14.25;;;;;;;3.97;60.28;102640.75;4951747;29;20051;-63
2024/01/20 01:52:04;;;;;;;26.45;12.32;;;;;;;3.98;59.77;102642.44;4965288;29;20059;-63
2024/01/20 01:54:33;;;;;;;23.33;13.05;;;;;;;4.00;60.33;102648.47;4963107;29;20121;-63
2024/01/20 01:57:02;;;;;;;29.17;12.25;;;;;;;3.97;60.45;102648.72;4961353;29;20050;-63
2024/01/20 01:59:34;;;;;;;31.60;13.23;;;;;;;3.98;60.16;102653.09;4964185;29;20059;-63
2024/01/20 02:02:01;;;;;;;28.00;12.90;;;;;;;3.97;60.66;102659.38;4964281;28;20054;-63
2024/01/20 02:04:29;;;;;;;25.05;13.07;;;;;;;3.96;60.67;102657.69;4964505;29;20051;-63
2024/01/20 02:06:57;;;;;;;25.17;12.43;;;;;;;3.96;60.66;102663.00;4961772;29;20406;-63
2024/01/20 02:09:26;;;;;;;26.08;12.77;;;;;;;3.96;60.03;102663.84;4965023;28;20050;-63
2024/01/20 02:11:54;;;;;;;23.08;12.75;;;;;;;3.95;60.54;102666.66;4964010;29;20138;-64
2024/01/20 02:14:23;;;;;;;27.73;12.73;;;;;;;3.96;60.60;102676.31;4962632;29;20061;-63
2024/01/20 02:16:52;;;;;;;25.83;12.40;;;;;;;3.92;60.41;102673.06;4961727;29;20059;-63
2024/01/20 02:19:19;;;;;;;22.92;13.15;;;;;;;3.96;60.69;102674.50;4957830;29;20051;-64
2024/01/20 02:21:47;;;;;;;27.75;13.10;;;;;;;3.93;60.16;102677.41;4968147;28;20074;-63
2024/01/20 02:24:17;;;;;;;26.02;12.23;;;;;;;3.93;60.47;102666.78;4975134;28;20044;-64
2024/01/20 02:26:45;;;;;;;27.60;12.52;;;;;;;3.93;60.63;102661.47;4957390;29;20047;-63
2024/01/20 02:29:12;;;;;;;23.08;11.85;;;;;;;3.91;60.95;102666.91;4963554;28;20043;-63
2024/01/20 02:31:40;;;;;;;24.73;12.45;;;;;;;3.93;60.68;102677.41;4962411;28;20051;-64
2024/01/20 02:34:08;;;;;;;24.77;12.05;;;;;;;3.92;60.73;102676.56;4963465;29;20107;-64
2024/01/20 02:36:36;;;;;;;23.50;12.45;;;;;;;3.77;59.95;102656.63;4963612;29;20043;-63
2024/01/20 02:39:04;;;;;;;22.77;11.23;;;;;;;3.91;60.36;102672.22;4963040;29;20043;-63
2024/01/20 02:41:33;;;;;;;22.25;11.77;;;;;;;3.91;60.80;102676.72;4963981;29;20134;-63
2024/01/20 02:44:01;;;;;;;23.67;12.07;;;;;;;3.90;60.19;102670.53;4965937;28;20070;-63
2024/01/20 02:46:29;;;;;;;24.27;12.70;;;;;;;3.90;60.35;102683.00;4951812;29;20118;-63
2024/01/20 02:48:57;;;;;;;24.58;11.85;;;;;;;3.92;60.44;102683.72;4962648;29;20539;-63
2024/01/20 02:51:25;;;;;;;21.50;12.13;;;;;;;3.91;60.73;102677.56;4960990;28;20189;-63
2024/01/20 02:53:54;;;;;;;23.30;11.38;;;;;;;3.91;60.10;102677.56;4948293;29;20056;-63
2024/01/20 02:56:22;;;;;;;23.70;12.13;;;;;;;3.90;60.16;102673.22;4958685;29;20058;-63
2024/01/20 02:58:51;;;;;;;21.45;12.35;;;;;;;3.56;60.17;102624.75;4965022;28;20062;-63
2024/01/20 03:01:19;;;;;;;22.90;11.50;;;;;;;3.88;60.77;102680.47;4962390;29;20106;-63
2024/01/20 03:03:47;;;;;;;23.95;11.50;;;;;;;3.90;60.66;102675.88;4963357;29;20058;-64
2024/01/20 03:06:15;;;;;;;21.20;10.57;;;;;;;3.89;60.79;102668.88;4956997;29;20056;-63
2024/01/20 03:08:43;;;;;;;25.15;11.20;;;;;;;3.88;60.78;102680.47;4964763;29;20142;-64
2024/01/20 03:11:11;;;;;;;23.30;11.75;;;;;;;3.87;60.31;102681.44;4957620;29;20083;-64
2024/01/20 03:13:39;;;;;;;22.42;12.75;;;;;;;3.82;60.34;102670.38;4963001;29;20051;-63
2024/01/20 03:16:08;;;;;;;20.70;11.25;;;;;;;3.87;60.19;102684.13;4962870;29;20039;-63
2024/01/20 03:18:37;;;;;;;24.90;12.02;;;;;;;3.87;60.06;102689.44;4967944;28;20466;-63
2024/01/20 03:21:05;;;;;;;20.48;11.35;;;;;;;3.87;60.75;102691.25;4965467;29;20063;-63
2024/01/20 03:23:33;;;;;;;24.60;11.93;;;;;;;3.87;60.16;102697.41;4968366;29;20139;-63
2024/01/20 03:26:06;;;;;;;22.48;11.38;;;;;;;3.85;59.96;102696.69;4962315;29;20147;-63
2024/01/20 03:28:34;;;;;;;20.60;11.38;;;;;;;3.87;60.88;102699.22;4965562;29;20105;-63
2024/01/20 03:31:02;;;;;;;21.75;9.85;;;;;;;3.86;60.58;102694.88;4965089;29;20043;-63
2024/01/20 03:33:31;;;;;;;23.52;11.07;;;;;;;3.86;60.07;102698.38;4967706;29;20051;-63
2024/01/20 03:35:59;;;;;;;23.15;11.60;;;;;;;3.86;60.98;102700.19;4967363;28;20055;-64
2024/01/20 03:38:27;;;;;;;24.27;12.23;;;;;;;3.75;60.35;102682.50;4975246;28;20106;-64
2024/01/20 03:40:54;;;;;;;21.92;11.45;;;;;;;3.83;60.86;102692.50;4966204;29;20424;-64
2024/01/20 03:43:22;;;;;;;18.83;10.55;;;;;;;3.84;60.62;102696.84;4963997;29;20051;-63
2024/01/20 03:45:50;;;;;;;23.52;11.00;;;;;;;3.82;60.87;102686.31;4962913;28;20113;-64
2024/01/20 03:48:18;;;;;;;22.75;11.55;;;;;;;3.81;61.02;102692.63;4969185;28;20051;-64
2024/01/20 03:50:47;;;;;;;24.08;11.60;;;;;;;3.81;60.69;102697.09;4959058;29;20065;-64
2024/01/20 03:53:15;;;;;;;21.17;11.32;;;;;;;3.83;60.99;102690.66;4952463;29;20055;-64
2024/01/20 03:55:43;;;;;;;21.38;11.80;;;;;;;3.82;60.58;102685.47;4945864;29;20351;-63
2024/01/20 03:58:11;;;;;;;20.73;11.05;;;;;;;3.82;60.57;102688.16;4946572;29;20131;-64
2024/01/20 04:00:38;;;;;;;22.13;11.90;;;;;;;3.81;60.94;102689.97;4946602;29;20190;-64
2024/01/20 04:03:06;;;;;;;24.17;11.30;;;;;;;3.81;60.45;102697.09;4947676;29;20051;-63
2024/01/20 04:05:34;;;;;;;20.05;10.60;;;;;;;3.80;61.06;102698.06;4942829;29;20403;-64
2024/01/20 04:08:04;;;;;;;19.17;10.30;;;;;;;3.81;61.07;102691.78;4946965;29;20051;-64
2024/01/20 04:10:32;;;;;;;22.02;11.07;;;;;;;3.81;60.23;102687.31;4932920;29;20542;-63
2024/01/20 04:12:59;;;;;;;21.33;11.15;;;;;;;3.80;60.50;102692.75;4945715;29;20081;-63
2024/01/20 04:15:28;;;;;;;23.27;12.10;;;;;;;3.78;60.44;102684.91;4939026;29;20093;-63
2024/01/20 04:17:55;;;;;;;22.33;11.40;;;;;;;3.78;60.67;102690.22;4938458;29;20062;-64
2024/01/20 04:20:24;;;;;;;18.90;10.48;;;;;;;3.79;60.70;102691.06;4940563;29;20462;-63
2024/01/20 04:22:51;;;;;;;25.77;11.75;;;;;;;3.79;60.47;102697.22;4939595;29;20051;-64
2024/01/20 04:25:20;;;;;;;19.85;10.98;;;;;;;3.78;60.45;102703.53;4944656;29;20190;-64
2024/01/20 04:27:49;;;;;;;22.13;11.52;;;;;;;3.76;61.08;102694.84;4947090;29;20052;-64
2024/01/20 04:30:16;;;;;;;21.35;10.70;;;;;;;3.78;60.57;102706.19;4945710;28;20116;-64
2024/01/20 04:32:44;;;;;;;18.67;10.35;;;;;;;3.78;61.15;102715.97;4947482;29;20052;-64
2024/01/20 04:35:12;;;;;;;18.88;10.32;;;;;;;3.78;60.94;102718.63;4947284;29;20269;-64
2024/01/20 04:37:40;;;;;;;22.48;11.32;;;;;;;3.78;60.71;102719.47;4948122;29;20055;-64
2024/01/20 04:40:09;;;;;;;23.05;12.18;;;;;;;3.77;60.81;102730.25;4943043;29;20088;-64
2024/01/20 04:42:38;;;;;;;20.02;11.35;;;;;;;3.77;61.28;102740.88;4937567;29;20182;-64
2024/01/20 04:45:07;;;;;;;21.60;11.45;;;;;;;3.77;60.94;102733.75;4947356;29;20071;-65
2024/01/20 04:47:35;;;;;;;21.33;12.15;;;;;;;3.76;61.10;102737.38;4945663;29;20110;-64
2024/01/20 04:50:03;;;;;;;21.42;11.57;;;;;;;3.76;61.15;102732.06;4944567;29;20072;-64
2024/01/20 04:52:31;;;;;;;22.63;11.32;;;;;;;3.75;61.34;102741.00;4947100;29;20067;-63
2024/01/20 04:54:59;;;;;;;23.95;12.02;;;;;;;3.77;60.99;102741.72;4944962;29;20044;-63
2024/01/20 04:57:26;;;;;;;23.08;12.07;;;;;;;3.77;61.08;102741.72;4939102;29;20051;-64
2024/01/20 04:59:56;;;;;;;22.33;12.23;;;;;;;3.75;60.34;102733.03;4945755;29;20079;-64
2024/01/20 05:02:24;;;;;;;21.92;12.43;;;;;;;3.75;61.40;102741.00;4946934;29;20142;-64
2024/01/20 05:04:51;;;;;;;21.48;12.32;;;;;;;3.73;61.14;102734.97;4946855;29;20119;-64
2024/01/20 05:07:19;;;;;;;22.38;11.90;;;;;;;3.74;61.04;102735.81;4945188;29;20087;-63
2024/01/20 05:09:47;;;;;;;23.52;11.52;;;;;;;3.75;60.43;102740.16;4945158;29;20081;-63
2024/01/20 05:12:15;;;;;;;21.42;11.07;;;;;;;3.73;61.04;102742.13;4930198;29;20063;-63
2024/01/20 05:14:43;;;;;;;19.85;11.20;;;;;;;3.74;60.87;102741.16;4940287;29;20054;-63
2024/01/20 05:17:12;;;;;;;21.02;11.20;;;;;;;3.67;61.37;102729.34;4944294;29;20059;-64
2024/01/20 05:19:40;;;;;;;21.73;10.70;;;;;;;3.73;61.28;102748.28;4944294;29;20114;-63
2024/01/20 05:22:08;;;;;;;21.73;11.38;;;;;;;3.73;60.59;102744.78;4940234;29;20087;-63
2024/01/20 05:24:35;;;;;;;21.15;11.75;;;;;;;3.71;60.93;102742.25;4946343;29;20198;-63
2024/01/20 05:27:04;;;;;;;26.50;13.45;;;;;;;3.72;60.90;102748.41;4938585;29;20044;-63
2024/01/20 05:29:32;;;;;;;18.48;11.60;;;;;;;3.71;61.17;102747.56;4946767;29;20051;-63
2024/01/20 05:32:00;;;;;;;21.85;11.85;;;;;;;3.71;60.39;102746.72;4945530;29;20086;-63
2024/01/20 05:34:29;;;;;;;20.40;11.13;;;;;;;3.71;60.74;102744.06;4935285;29;20075;-64
2024/01/20 05:36:57;;;;;;;21.83;12.13;;;;;;;3.69;61.42;102735.38;4945453;29;20126;-63
2024/01/20 05:39:24;;;;;;;20.48;11.73;;;;;;;3.57;60.67;102727.47;4934398;29;20187;-64
2024/01/20 05:41:52;;;;;;;20.42;11.30;;;;;;;3.70;60.52;102747.69;4942514;29;20044;-63
2024/01/20 05:44:20;;;;;;;20.98;11.77;;;;;;;3.69;61.29;102746.00;4938539;29;20051;-63
2024/01/20 05:46:48;;;;;;;21.13;11.50;;;;;;;3.69;61.50;102749.50;4934254;29;20564;-63
2024/01/20 05:49:16;;;;;;;20.42;11.70;;;;;;;3.70;61.21;102753.00;4946032;29;20116;-63
2024/01/20 05:51:45;;;;;;;20.50;10.75;;;;;;;3.69;61.05;102754.84;4942841;29;20118;-63
2024/01/20 05:54:13;;;;;;;19.88;11.32;;;;;;;3.69;61.47;102759.31;4946337;29;20103;-64
2024/01/20 05:56:41;;;;;;;18.60;10.85;;;;;;;3.70;60.94;102756.53;4926732;29;20139;-64
2024/01/20 05:59:09;;;;;;;19.67;11.10;;;;;;;3.70;61.13;102761.84;4943276;29;20055;-64
2024/01/20 06:01:37;;;;;;;22.25;11.48;;;;;;;3.69;60.42;102756.66;4602034;28;10000220;-64
2024/01/20 06:04:05;;;;;;;20.92;11.82;;;;;;;3.70;60.71;102768.97;4942375;29;20091;-62
2024/01/20 06:06:32;;;;;;;23.52;11.80;;;;;;;3.68;60.80;102765.59;4938359;29;20127;-63
2024/01/20 06:09:02;;;;;;;21.55;11.38;;;;;;;3.67;61.28;102774.53;4942470;29;20115;-63
2024/01/20 06:11:30;;;;;;;24.38;12.00;;;;;;;3.68;60.40;102776.22;4938652;29;20064;-63
2024/01/20 06:13:58;;;;;;;23.30;11.90;;;;;;;3.67;60.82;102774.53;4941135;29;20087;-63
2024/01/20 06:16:26;;;;;;;21.30;11.90;;;;;;;3.67;60.75;102766.56;4941649;29;20119;-63
2024/01/20 06:18:54;;;;;;;20.63;10.27;;;;;;;3.67;60.71;102766.56;4941352;29;20277;-63
2024/01/20 06:21:22;;;;;;;20.65;11.98;;;;;;;3.71;60.38;102773.31;4941919;29;20055;-63
2024/01/20 06:23:50;;;;;;;19.48;10.63;;;;;;;3.83;60.06;102781.09;4940467;29;20047;-63
2024/01/20 06:26:20;;;;;;;18.80;11.05;;;;;;;4.01;60.33;102778.69;4938127;29;20052;-63
2024/01/20 06:28:47;;;;;;;20.63;10.77;;;;;;;4.18;59.10;102774.56;4941583;29;20043;-64
2024/01/20 06:31:23;;;;;;;21.33;11.30;;;;;;;4.37;58.63;102779.13;4933888;29;20066;-64
2024/01/20 06:33:51;;;;;;;19.77;11.02;;;;;;;4.53;58.46;102787.47;4940303;29;20083;-64
2024/01/20 06:36:21;;;;;;;20.45;11.27;;;;;;;4.69;57.72;102786.97;4932773;29;20044;-65
2024/01/20 06:38:49;;;;;;;18.63;11.13;;;;;;;4.80;57.43;102792.19;4941363;29;20060;-67
2024/01/20 06:41:17;;;;;;;21.25;10.98;;;;;;;4.96;57.15;102783.66;4940845;29;20090;-67
2024/01/20 06:43:46;;;;;;;20.88;10.32;;;;;;;5.00;56.70;102785.06;4937117;29;20048;-66
2024/01/20 06:46:14;;;;;;;17.80;10.77;;;;;;;4.93;57.05;102784.78;4941563;29;20051;-64
2024/01/20 06:48:42;;;;;;;18.98;10.55;;;;;;;4.82;56.91;102796.41;4935317;29;20063;-64
2024/01/20 06:51:14;;;;;;;17.52;11.68;;;;;;;4.68;58.00;102795.94;4941672;29;20115;-65
2024/01/20 06:53:43;;;;;;;17.15;10.90;;;;;;;4.41;58.64;102786.72;4951443;28;20071;-68
2024/01/20 06:56:12;;;;;;;24.30;12.45;;;;;;;4.12;59.10;102799.06;4964084;28;20107;-64
2024/01/20 06:58:40;;;;;;;18.50;10.85;;;;;;;4.10;59.09;102803.66;4964952;29;20514;-64
2024/01/20 07:01:09;;;;;;;23.90;11.88;;;;;;;4.09;59.07;102812.63;4964662;28;20202;-64
2024/01/20 07:03:37;;;;;;;25.88;12.45;;;;;;;4.08;59.44;102817.09;4963207;28;20102;-64
2024/01/20 07:06:07;;;;;;;26.50;12.50;;;;;;;4.08;59.44;102813.59;4964014;28;20436;-65
2024/01/20 07:08:35;;;;;;;29.75;12.32;;;;;;;4.05;59.19;102821.84;4959640;28;20073;-64
2024/01/20 07:11:03;;;;;;;27.67;11.93;;;;;;;4.04;60.07;102831.63;4963788;28;20106;-64
2024/01/20 07:13:31;;;;;;;24.95;12.38;;;;;;;4.01;59.47;102823.91;4957663;29;20118;-64
2024/01/20 07:15:59;;;;;;;23.58;12.32;;;;;;;3.98;59.90;102826.84;4959368;29;20079;-63
2024/01/20 07:18:28;;;;;;;22.55;12.80;;;;;;;3.96;60.08;102818.13;4966126;28;20087;-63
2024/01/20 07:20:56;;;;;;;22.15;11.20;;;;;;;3.93;60.27;102823.72;4961642;29;20063;-62
2024/01/20 07:23:24;;;;;;;18.60;11.57;;;;;;;3.92;60.32;102827.34;4964225;29;20426;-63
2024/01/20 07:25:52;;;;;;;22.00;12.07;;;;;;;3.86;59.52;102817.22;4964030;29;20075;-64
2024/01/20 07:28:20;;;;;;;20.52;11.77;;;;;;;3.85;60.10;102821.69;4962713;28;20051;-64
2024/01/20 07:30:48;;;;;;;18.73;10.88;;;;;;;3.84;60.44;102816.50;4953885;29;20059;-64
2024/01/20 07:33:16;;;;;;;19.80;11.57;;;;;;;3.87;59.89;102821.56;4962412;29;20079;-64
2024/01/20 07:35:45;;;;;;;18.52;11.02;;;;;;;3.84;60.12;102820.03;4958567;29;20047;-65
2024/01/20 07:38:13;;;;;;;18.67;11.23;;;;;;;3.83;60.63;102823.66;4962745;28;20055;-64
2024/01/20 07:40:41;;;;;;;21.42;11.82;;;;;;;3.81;59.68;102828.25;4963814;29;20047;-64
2024/01/20 07:43:09;;;;;;;19.33;11.07;;;;;;;3.80;60.51;102833.69;4963853;28;20078;-65
2024/01/20 07:45:38;;;;;;;22.48;11.23;;;;;;;3.80;60.40;102831.88;4959194;29;20047;-63
2024/01/20 07:48:06;;;;;;;19.10;10.57;;;;;;;3.88;59.78;102826.75;4959040;29;20115;-62
2024/01/20 07:50:34;;;;;;;20.13;11.63;;;;;;;4.05;59.88;102837.78;4962769;29;20059;-64
2024/01/20 07:53:04;;;;;;;19.80;10.98;;;;;;;4.20;59.25;102834.66;4942894;28;20063;-64
2024/01/20 07:55:32;;;;;;;20.77;11.60;;;;;;;4.37;58.93;102843.03;4939118;29;20062;-63
2024/01/20 07:58:00;;;;;;;15.23;9.52;;;;;;;4.58;58.19;102836.69;4941128;29;20394;-63
2024/01/20 08:00:28;;;;;;;20.35;10.98;;;;;;;4.80;57.57;102837.47;4944420;29;20075;-62
2024/01/20 08:02:56;;;;;;;22.92;11.02;;;;;;;4.86;57.14;102837.78;4963569;28;20058;-63
2024/01/20 08:05:24;;;;;;;20.08;11.25;;;;;;;4.85;57.34;102835.25;4942686;29;20048;-65
2024/01/20 08:07:51;;;;;;;18.38;11.00;;;;;;;4.79;57.78;102833.13;4941126;29;20142;-64
2024/01/20 08:10:21;;;;;;;22.45;10.73;;;;;;;4.67;57.67;102836.84;4931281;29;20092;-65
2024/01/20 08:12:50;;;;;;;18.80;10.80;;;;;;;4.57;57.61;102842.16;4935631;29;20083;-63
2024/01/20 08:15:18;;;;;;;18.33;10.73;;;;;;;4.65;57.70;102842.31;4941043;29;20070;-62
2024/01/20 08:17:46;;;;;;;17.67;10.85;;;;;;;4.73;57.64;102829.19;4940809;29;20048;-62
2024/01/20 08:20:14;;;;;;;21.58;11.07;;;;;;;4.86;56.90;102840.44;4927510;29;20174;-61
2024/01/20 08:22:41;;;;;;;22.08;12.43;;;;;;;5.01;56.90;102834.72;4943197;29;20055;-62
2024/01/20 08:25:09;;;;;;;18.92;10.73;;;;;;;5.10;56.03;102840.06;4924894;29;20378;-62
2024/01/20 08:27:39;;;;;;;20.13;11.02;;;;;;;5.26;55.81;102847.50;4939836;29;20059;-63
2024/01/20 08:30:07;;;;;;;19.15;10.90;;;;;;;5.31;55.78;102855.94;4939008;29;20052;-67
2024/01/20 08:32:37;;;;;;;19.15;10.82;;;;;;;5.16;55.93;102860.84;4942812;29;20048;-65
2024/01/20 08:35:05;;;;;;;19.13;11.48;;;;;;;4.60;57.20;102857.84;4944371;29;20072;-67
2024/01/20 08:37:33;;;;;;;26.77;13.60;;;;;;;4.50;58.07;102860.47;4944998;29;20048;-66
2024/01/20 08:40:02;;;;;;;22.77;12.20;;;;;;;4.41;58.17;102850.63;4946054;29;20131;-65
2024/01/20 08:42:30;;;;;;;21.92;12.40;;;;;;;4.44;58.33;102869.00;4945210;29;20048;-66
2024/01/20 08:44:59;;;;;;;28.45;13.88;;;;;;;4.28;57.78;102873.09;4946587;29;20063;-64
2024/01/20 08:47:28;;;;;;;25.88;13.38;;;;;;;4.31;58.38;102868.34;4946157;29;20130;-65
2024/01/20 08:49:56;;;;;;;22.02;13.32;;;;;;;4.55;58.25;102874.22;4945255;29;20048;-66
2024/01/20 08:52:24;;;;;;;23.33;12.82;;;;;;;4.73;56.98;102870.94;4937751;29;20063;-65
2024/01/20 08:54:52;;;;;;;23.35;13.35;;;;;;;4.91;57.02;102874.66;4941431;29;20051;-65
2024/01/20 08:57:20;;;;;;;20.65;12.50;;;;;;;5.06;56.67;102875.13;4935647;29;20060;-66
2024/01/20 08:59:47;;;;;;;22.40;11.93;;;;;;;5.22;55.75;102878.09;4942773;29;20448;-67
2024/01/20 09:02:17;;;;;;;25.98;12.30;;;;;;;5.35;55.59;102880.50;4941839;29;20154;-67
2024/01/20 09:04:45;;;;;;;22.02;11.63;;;;;;;5.49;55.76;102880.09;4941174;29;20055;-66
2024/01/20 09:07:12;;;;;;;20.77;11.15;;;;;;;5.47;55.32;102871.41;4942341;29;20104;-66
2024/01/20 09:09:40;;;;;;;22.75;12.35;;;;;;;5.35;55.63;102881.34;4933330;29;20048;-65
2024/01/20 09:12:08;;;;;;;21.20;12.45;;;;;;;5.20;56.21;102878.22;4944733;29;20091;-68
2024/01/20 09:14:37;;;;;;;23.10;13.13;;;;;;;5.06;56.65;102888.44;4940282;29;20079;-67
2024/01/20 09:17:05;;;;;;;20.38;11.88;;;;;;;4.88;56.91;102881.09;4936276;29;20044;-66
2024/01/20 09:19:34;;;;;;;23.33;12.43;;;;;;;4.73;57.44;102879.78;4934947;29;20314;-67
2024/01/20 09:22:02;;;;;;;21.15;12.57;;;;;;;4.64;57.44;102888.56;4941693;29;20044;-64
2024/01/20 09:24:30;;;;;;;20.50;12.63;;;;;;;4.61;57.79;102890.66;4939223;29;20143;-64
2024/01/20 09:26:57;;;;;;;19.92;12.43;;;;;;;4.54;58.29;102896.50;4938192;29;20054;-64
2024/01/20 09:29:26;;;;;;;21.08;13.23;;;;;;;4.50;58.18;102891.56;4940959;29;20066;-66
2024/01/20 09:31:54;;;;;;;23.70;13.65;;;;;;;4.44;58.35;102897.44;4942149;29;20063;-65
2024/01/20 09:34:21;;;;;;;21.80;12.60;;;;;;;4.38;58.84;102898.78;4936327;29;20063;-66
2024/01/20 09:36:51;;;;;;;23.38;13.20;;;;;;;4.34;59.36;102893.88;4938778;29;20051;-67
2024/01/20 09:39:20;;;;;;;27.05;13.73;;;;;;;4.32;59.23;102895.81;4941418;29;20055;-69
2024/01/20 09:41:48;;;;;;;24.70;13.52;;;;;;;4.31;58.58;102892.31;4939603;29;20047;-67
2024/01/20 09:44:16;;;;;;;23.55;12.95;;;;;;;4.28;58.97;102887.25;4941458;29;20130;-64
2024/01/20 09:46:45;;;;;;;25.80;13.52;;;;;;;4.24;58.85;102891.97;4938723;29;20083;-66
2024/01/20 09:49:13;;;;;;;23.55;13.02;;;;;;;4.28;58.74;102897.88;4939008;29;20163;-65
2024/01/20 09:51:53;;;;;;;23.48;13.50;;;;;;;4.46;58.66;102898.97;4940959;28;20146;-65
2024/01/20 09:54:22;;;;;;;24.88;14.80;;;;;;;4.62;58.36;102906.50;4940679;29;20079;-65
2024/01/20 09:56:51;;;;;;;24.33;14.43;;;;;;;4.80;57.80;102902.25;4939257;29;20079;-67
2024/01/20 09:59:21;;;;;;;27.38;14.40;;;;;;;5.00;56.88;102897.00;4938901;29;20051;-67
2024/01/20 10:01:52;;;;;;;24.25;14.15;;;;;;;5.14;56.88;102909.94;4947921;29;20106;-65
2024/01/20 10:04:22;;;;;;;29.42;15.00;;;;;;;5.30;56.30;102910.22;4939338;29;20059;-68
2024/01/20 10:06:51;;;;;;;26.15;14.40;;;;;;;5.44;55.91;102909.84;4939749;29;20119;-64
2024/01/20 10:09:19;;;;;;;28.65;15.02;;;;;;;5.61;55.78;102916.34;4941274;29;20059;-64
2024/01/20 10:11:48;;;;;;;23.73;14.10;;;;;;;5.59;55.45;102891.63;4938718;29;20114;-65
2024/01/20 10:14:16;;;;;;;26.65;14.90;;;;;;;5.80;55.00;102902.16;4941893;29;20047;-66
2024/01/20 10:16:44;;;;;;;24.15;14.02;;;;;;;5.87;54.65;102912.13;4940879;29;20102;-66
2024/01/20 10:19:12;;;;;;;25.52;15.55;;;;;;;5.94;54.47;102906.28;4940135;29;20086;-66
2024/01/20 10:21:40;;;;;;;27.98;15.52;;;;;;;5.80;54.66;102897.66;4940384;29;20063;-68
2024/01/20 10:24:08;;;;;;;25.58;15.20;;;;;;;5.76;55.17;102911.44;4940884;29;20064;-62
2024/01/20 10:26:43;;;;;;;29.45;14.55;;;;;;;5.61;55.67;102915.50;4944815;29;20107;-70
2024/01/20 10:29:12;;;;;;;28.00;15.63;;;;;;;5.42;56.01;102927.81;4944773;29;20444;-65
2024/01/20 10:31:39;;;;;;;28.02;15.05;;;;;;;5.24;56.23;102922.28;4947513;29;20052;-65
2024/01/20 10:34:07;;;;;;;27.83;15.52;;;;;;;5.10;57.09;102917.38;4949385;29;20080;-68
2024/01/20 10:36:36;;;;;;;28.08;16.73;;;;;;;4.99;57.66;102916.63;4948479;29;20541;-64
2024/01/20 10:39:07;;;;;;;24.98;15.07;;;;;;;4.92;57.69;102907.47;4951336;29;20155;-67
2024/01/20 10:41:41;;;;;;;26.13;15.43;;;;;;;4.84;57.99;102897.50;4952979;29;20047;-66
2024/01/20 10:44:16;;;;;;;28.33;15.02;;;;;;;4.81;58.17;102893.28;4945219;29;20084;-65
2024/01/20 10:46:47;;;;;;;24.90;14.55;;;;;;;4.72;58.32;102895.91;4947974;29;20122;-67
2024/01/20 10:49:18;;;;;;;29.20;15.80;;;;;;;4.73;58.38;102902.91;4946453;29;20131;-65
2024/01/20 10:51:47;;;;;;;28.80;15.00;;;;;;;4.71;58.50;102888.88;4947197;28;20051;-67
2024/01/20 10:54:17;;;;;;;25.58;14.23;;;;;;;4.83;58.14;102896.66;4948893;29;20079;-65
2024/01/20 10:56:44;;;;;;;25.13;14.48;;;;;;;4.96;57.90;102890.25;4944530;29;20052;-66
2024/01/20 10:59:17;;;;;;;25.23;14.45;;;;;;;5.06;57.23;102888.44;4946299;29;20130;-65
2024/01/20 11:01:46;;;;;;;26.92;13.85;;;;;;;5.21;57.07;102885.25;4948030;29;20505;-67
2024/01/20 11:04:18;;;;;;;27.48;15.52;;;;;;;5.31;56.32;102890.59;4946603;29;20062;-63
2024/01/20 11:06:46;;;;;;;24.30;14.60;;;;;;;5.48;55.94;102889.94;4948132;29;20051;-67
2024/01/20 11:09:21;;;;;;;23.33;13.95;;;;;;;5.65;55.47;102890.22;4949149;29;20067;-66
2024/01/20 11:12:00;;;;;;;24.83;13.60;;;;;;;5.78;54.61;102891.63;4943681;29;20052;-65
2024/01/20 11:14:32;;;;;;;23.75;13.68;;;;;;;5.86;54.72;102882.94;4950022;29;20075;-67
2024/01/20 11:17:09;;;;;;;21.27;12.63;;;;;;;6.09;54.44;102894.19;4941125;29;20062;-63
2024/01/20 11:19:38;;;;;;;23.23;13.50;;;;;;;6.06;54.43;102892.63;4946375;29;20055;-67
2024/01/20 11:22:06;;;;;;;24.95;14.13;;;;;;;6.00;53.75;102879.88;4947010;29;20051;-66